sensor_id;sensor_type;location;lat;lon;timestamp;pressure;altitude;pressure_sealevel;temperature;humidity
9855;BME280;4966;48.112;9.282;2024-01-30T00:00:04;96069.41;;;-0.17;80.93
9855;BME280;4966;48.112;9.282;2024-01-30T00:02:30;96057.69;;;-0.16;81.20
9855;BME280;4966;48.112;9.282;2024-01-30T00:04:55;96063.72;;;-0.09;81.08
9855;BME280;4966;48.112;9.282;2024-01-30T00:07:21;96061.66;;;-0.19;81.14
9855;BME280;4966;48.112;9.282;2024-01-30T00:09:47;96067.56;;;-0.17;81.32
9855;BME280;4966;48.112;9.282;2024-01-30T00:12:14;96074.88;;;-0.12;80.85
9855;BME280;4966;48.112;9.282;2024-01-30T00:14:41;96070.91;;;-0.10;80.87
9855;BME280;4966;48.112;9.282;2024-01-30T00:17:06;96066.56;;;0.13;79.79
9855;BME280;4966;48.112;9.282;2024-01-30T00:19:32;96065.22;;;-0.02;80.08
9855;BME280;4966;48.112;9.282;2024-01-30T00:21:57;96057.69;;;-0.16;80.70
9855;BME280;4966;48.112;9.282;2024-01-30T00:24:23;96062.47;;;-0.18;81.05
9855;BME280;4966;48.112;9.282;2024-01-30T00:26:48;96058.13;;;-0.19;81.38
9855;BME280;4966;48.112;9.282;2024-01-30T00:29:13;96061.97;;;-0.15;81.06
9855;BME280;4966;48.112;9.282;2024-01-30T00:31:44;96071.16;;;-0.11;80.78
9855;BME280;4966;48.112;9.282;2024-01-30T00:34:10;96065.13;;;-0.18;80.52
9855;BME280;4966;48.112;9.282;2024-01-30T00:36:35;96069.75;;;-0.02;80.26
9855;BME280;4966;48.112;9.282;2024-01-30T00:39:00;96072.31;;;-0.07;80.13
9855;BME280;4966;48.112;9.282;2024-01-30T00:41:26;96067.00;;;-0.19;80.43
9855;BME280;4966;48.112;9.282;2024-01-30T00:43:52;96076.53;;;-0.23;80.64
9855;BME280;4966;48.112;9.282;2024-01-30T00:46:17;96070.00;;;-0.15;80.50
9855;BME280;4966;48.112;9.282;2024-01-30T00:48:42;96068.81;;;-0.08;79.97
9855;BME280;4966;48.112;9.282;2024-01-30T00:51:08;96061.50;;;-0.12;79.78
9855;BME280;4966;48.112;9.282;2024-01-30T00:53:33;96061.06;;;-0.21;79.98
9855;BME280;4966;48.112;9.282;2024-01-30T00:55:58;96065.63;;;-0.22;80.27
9855;BME280;4966;48.112;9.282;2024-01-30T00:58:24;96055.47;;;-0.19;80.21
9855;BME280;4966;48.112;9.282;2024-01-30T01:00:49;96064.78;;;-0.34;80.43
9855;BME280;4966;48.112;9.282;2024-01-30T01:03:15;96057.47;;;-0.38;80.58
9855;BME280;4966;48.112;9.282;2024-01-30T01:05:40;96068.16;;;-0.27;80.71
9855;BME280;4966;48.112;9.282;2024-01-30T01:08:06;96061.38;;;-0.06;80.08
9855;BME280;4966;48.112;9.282;2024-01-30T01:10:31;96059.63;;;0.00;79.60
9855;BME280;4966;48.112;9.282;2024-01-30T01:12:57;96059.88;;;-0.13;80.14
9855;BME280;4966;48.112;9.282;2024-01-30T01:15:22;96060.00;;;-0.20;80.26
9855;BME280;4966;48.112;9.282;2024-01-30T01:17:47;96055.25;;;-0.30;80.84
9855;BME280;4966;48.112;9.282;2024-01-30T01:20:12;96065.38;;;-0.32;80.84
9855;BME280;4966;48.112;9.282;2024-01-30T01:22:38;96070.84;;;-0.38;81.23
9855;BME280;4966;48.112;9.282;2024-01-30T01:25:04;96066.56;;;-0.39;81.34
9855;BME280;4966;48.112;9.282;2024-01-30T01:27:32;96065.16;;;-0.42;81.42
9855;BME280;4966;48.112;9.282;2024-01-30T01:29:59;96061.31;;;-0.34;81.28
9855;BME280;4966;48.112;9.282;2024-01-30T01:32:24;96071.31;;;-0.30;81.05
9855;BME280;4966;48.112;9.282;2024-01-30T01:34:50;96060.72;;;-0.25;80.84
9855;BME280;4966;48.112;9.282;2024-01-30T01:37:15;96066.63;;;-0.11;79.66
9855;BME280;4966;48.112;9.282;2024-01-30T01:39:40;96070.22;;;-0.17;79.58
9855;BME280;4966;48.112;9.282;2024-01-30T01:42:06;96079.44;;;-0.25;79.54
9855;BME280;4966;48.112;9.282;2024-01-30T01:44:31;96067.84;;;-0.42;79.73
9855;BME280;4966;48.112;9.282;2024-01-30T01:46:57;96055.66;;;-0.61;81.19
9855;BME280;4966;48.112;9.282;2024-01-30T01:49:25;96060.75;;;-0.48;81.04
9855;BME280;4966;48.112;9.282;2024-01-30T01:51:51;96069.81;;;-0.49;81.21
9855;BME280;4966;48.112;9.282;2024-01-30T01:54:18;96058.66;;;-0.58;81.67
9855;BME280;4966;48.112;9.282;2024-01-30T01:56:43;96065.06;;;-0.47;81.54
9855;BME280;4966;48.112;9.282;2024-01-30T01:59:09;96070.03;;;-0.39;80.88
9855;BME280;4966;48.112;9.282;2024-01-30T02:01:38;96063.19;;;-0.35;80.64
9855;BME280;4966;48.112;9.282;2024-01-30T02:04:06;96065.50;;;-0.38;81.05
9855;BME280;4966;48.112;9.282;2024-01-30T02:06:32;96058.53;;;-0.28;80.21
9855;BME280;4966;48.112;9.282;2024-01-30T02:08:58;96063.50;;;-0.31;79.84
9855;BME280;4966;48.112;9.282;2024-01-30T02:11:23;96060.03;;;-0.44;80.19
9855;BME280;4966;48.112;9.282;2024-01-30T02:13:49;96050.19;;;-0.43;80.16
9855;BME280;4966;48.112;9.282;2024-01-30T02:16:15;96062.03;;;-0.51;80.66
9855;BME280;4966;48.112;9.282;2024-01-30T02:18:42;96060.75;;;-0.48;80.40
9855;BME280;4966;48.112;9.282;2024-01-30T02:21:10;96054.94;;;-0.33;79.76
9855;BME280;4966;48.112;9.282;2024-01-30T02:23:36;96054.94;;;-0.45;79.99
9855;BME280;4966;48.112;9.282;2024-01-30T02:26:02;96055.41;;;-0.48;79.99
9855;BME280;4966;48.112;9.282;2024-01-30T02:28:28;96055.16;;;-0.47;80.10
9855;BME280;4966;48.112;9.282;2024-01-30T02:30:53;96050.53;;;-0.51;80.19
9855;BME280;4966;48.112;9.282;2024-01-30T02:33:19;96052.72;;;-0.48;80.00
9855;BME280;4966;48.112;9.282;2024-01-30T02:35:44;96047.50;;;-0.43;79.56
9855;BME280;4966;48.112;9.282;2024-01-30T02:38:10;96051.91;;;-0.60;79.84
9855;BME280;4966;48.112;9.282;2024-01-30T02:40:35;96049.25;;;-0.49;79.83
9855;BME280;4966;48.112;9.282;2024-01-30T02:43:02;96047.97;;;-0.58;79.93
9855;BME280;4966;48.112;9.282;2024-01-30T02:45:27;96050.75;;;-0.53;79.95
9855;BME280;4966;48.112;9.282;2024-01-30T02:47:52;96051.13;;;-0.61;80.71
9855;BME280;4966;48.112;9.282;2024-01-30T02:50:18;96044.09;;;-0.38;79.31
9855;BME280;4966;48.112;9.282;2024-01-30T02:52:43;96048.31;;;-0.43;79.29
9855;BME280;4966;48.112;9.282;2024-01-30T02:55:09;96049.13;;;-0.66;80.02
9855;BME280;4966;48.112;9.282;2024-01-30T02:57:34;96054.84;;;-0.74;80.95
9855;BME280;4966;48.112;9.282;2024-01-30T03:00:00;96054.97;;;-0.69;80.80
9855;BME280;4966;48.112;9.282;2024-01-30T03:02:25;96054.72;;;-0.67;80.90
9855;BME280;4966;48.112;9.282;2024-01-30T03:04:50;96057.84;;;-0.58;80.83
9855;BME280;4966;48.112;9.282;2024-01-30T03:07:16;96046.94;;;-0.45;80.42
9855;BME280;4966;48.112;9.282;2024-01-30T03:09:41;96055.75;;;-0.45;79.97
9855;BME280;4966;48.112;9.282;2024-01-30T03:12:10;96052.97;;;-0.50;80.27
9855;BME280;4966;48.112;9.282;2024-01-30T03:14:35;96053.09;;;-0.56;80.50
9855;BME280;4966;48.112;9.282;2024-01-30T03:17:00;96054.47;;;-0.54;80.41
9855;BME280;4966;48.112;9.282;2024-01-30T03:19:26;96040.06;;;-0.53;80.56
9855;BME280;4966;48.112;9.282;2024-01-30T03:21:51;96056.94;;;-0.52;80.52
9855;BME280;4966;48.112;9.282;2024-01-30T03:24:16;96050.03;;;-0.36;80.07
9855;BME280;4966;48.112;9.282;2024-01-30T03:26:43;96053.53;;;-0.36;79.64
9855;BME280;4966;48.112;9.282;2024-01-30T03:29:08;96051.09;;;-0.49;79.75
9855;BME280;4966;48.112;9.282;2024-01-30T03:31:34;96051.69;;;-0.47;79.97
9855;BME280;4966;48.112;9.282;2024-01-30T03:33:59;96047.97;;;-0.46;79.78
9855;BME280;4966;48.112;9.282;2024-01-30T03:36:24;96050.50;;;-0.39;79.68
9855;BME280;4966;48.112;9.282;2024-01-30T03:38:50;96046.00;;;-0.51;79.86
9855;BME280;4966;48.112;9.282;2024-01-30T03:41:15;96043.91;;;-0.60;80.27
9855;BME280;4966;48.112;9.282;2024-01-30T03:43:40;96050.91;;;-0.59;80.21
9855;BME280;4966;48.112;9.282;2024-01-30T03:46:06;96046.69;;;-0.55;80.27
9855;BME280;4966;48.112;9.282;2024-01-30T03:48:31;96047.16;;;-0.58;80.52
9855;BME280;4966;48.112;9.282;2024-01-30T03:50:56;96045.41;;;-0.53;80.25
9855;BME280;4966;48.112;9.282;2024-01-30T03:53:22;96044.47;;;-0.47;80.15
9855;BME280;4966;48.112;9.282;2024-01-30T03:55:47;96037.38;;;-0.53;79.66
9855;BME280;4966;48.112;9.282;2024-01-30T03:58:12;96047.28;;;-0.53;79.56
9855;BME280;4966;48.112;9.282;2024-01-30T04:00:38;96047.38;;;-0.60;79.73
9855;BME280;4966;48.112;9.282;2024-01-30T04:03:03;96036.47;;;-0.58;80.00
9855;BME280;4966;48.112;9.282;2024-01-30T04:05:29;96046.84;;;-0.62;79.90
9855;BME280;4966;48.112;9.282;2024-01-30T04:07:54;96034.03;;;-0.60;79.89
9855;BME280;4966;48.112;9.282;2024-01-30T04:10:19;96041.72;;;-0.63;79.55
9855;BME280;4966;48.112;9.282;2024-01-30T04:12:44;96042.63;;;-0.58;79.63
9855;BME280;4966;48.112;9.282;2024-01-30T04:15:10;96036.59;;;-0.65;79.65
9855;BME280;4966;48.112;9.282;2024-01-30T04:17:35;96035.28;;;-0.51;78.72
9855;BME280;4966;48.112;9.282;2024-01-30T04:20:01;96033.59;;;-0.69;79.21
9855;BME280;4966;48.112;9.282;2024-01-30T04:22:26;96031.59;;;-0.73;79.32
9855;BME280;4966;48.112;9.282;2024-01-30T04:24:51;96029.97;;;-0.74;79.39
9855;BME280;4966;48.112;9.282;2024-01-30T04:27:17;96026.38;;;-0.80;79.47
9855;BME280;4966;48.112;9.282;2024-01-30T04:29:42;96030.91;;;-0.80;79.51
9855;BME280;4966;48.112;9.282;2024-01-30T04:32:08;96024.66;;;-0.86;79.82
9855;BME280;4966;48.112;9.282;2024-01-30T04:34:36;96029.53;;;-0.83;79.39
9855;BME280;4966;48.112;9.282;2024-01-30T04:37:01;96031.84;;;-0.87;79.62
9855;BME280;4966;48.112;9.282;2024-01-30T04:39:27;96031.38;;;-0.83;79.44
9855;BME280;4966;48.112;9.282;2024-01-30T04:41:52;96040.53;;;-0.91;79.84
9855;BME280;4966;48.112;9.282;2024-01-30T04:44:17;96040.69;;;-0.98;79.90
9855;BME280;4966;48.112;9.282;2024-01-30T04:46:43;96037.88;;;-0.91;80.07
9855;BME280;4966;48.112;9.282;2024-01-30T04:49:08;96043.47;;;-0.93;80.10
9855;BME280;4966;48.112;9.282;2024-01-30T04:51:33;96045.44;;;-0.76;79.37
9855;BME280;4966;48.112;9.282;2024-01-30T04:53:59;96045.56;;;-0.83;79.42
9855;BME280;4966;48.112;9.282;2024-01-30T04:56:24;96046.84;;;-0.86;79.54
9855;BME280;4966;48.112;9.282;2024-01-30T04:58:50;96047.31;;;-0.89;79.38
9855;BME280;4966;48.112;9.282;2024-01-30T05:01:18;96042.50;;;-0.87;78.93
9855;BME280;4966;48.112;9.282;2024-01-30T05:03:44;96049.97;;;-0.89;79.42
9855;BME280;4966;48.112;9.282;2024-01-30T05:06:09;96045.44;;;-1.00;80.00
9855;BME280;4966;48.112;9.282;2024-01-30T05:08:35;96054.00;;;-1.10;80.41
9855;BME280;4966;48.112;9.282;2024-01-30T05:11:04;96046.81;;;-0.97;79.91
9855;BME280;4966;48.112;9.282;2024-01-30T05:13:31;96053.91;;;-1.03;80.40
9855;BME280;4966;48.112;9.282;2024-01-30T05:15:56;96069.69;;;-1.01;80.36
9855;BME280;4966;48.112;9.282;2024-01-30T05:18:21;96059.72;;;-0.94;80.11
9855;BME280;4966;48.112;9.282;2024-01-30T05:20:47;96059.97;;;-0.96;80.38
9855;BME280;4966;48.112;9.282;2024-01-30T05:23:12;96053.91;;;-0.79;79.51
9855;BME280;4966;48.112;9.282;2024-01-30T05:25:37;96054.59;;;-0.84;79.35
9855;BME280;4966;48.112;9.282;2024-01-30T05:28:03;96065.63;;;-0.92;79.65
9855;BME280;4966;48.112;9.282;2024-01-30T05:30:28;96063.78;;;-0.80;78.81
9855;BME280;4966;48.112;9.282;2024-01-30T05:32:53;96056.94;;;-0.88;78.98
9855;BME280;4966;48.112;9.282;2024-01-30T05:35:19;96050.09;;;-0.95;79.18
9855;BME280;4966;48.112;9.282;2024-01-30T05:37:47;96058.91;;;-0.83;78.24
9855;BME280;4966;48.112;9.282;2024-01-30T05:40:13;96064.72;;;-0.98;78.72
9855;BME280;4966;48.112;9.282;2024-01-30T05:42:38;96065.41;;;-0.91;78.57
9855;BME280;4966;48.112;9.282;2024-01-30T05:45:04;96061.81;;;-0.84;78.26
9855;BME280;4966;48.112;9.282;2024-01-30T05:47:30;96068.31;;;-0.80;78.30
9855;BME280;4966;48.112;9.282;2024-01-30T05:49:56;96061.00;;;-0.85;78.18
9855;BME280;4966;48.112;9.282;2024-01-30T05:52:21;96071.09;;;-0.87;78.00
9855;BME280;4966;48.112;9.282;2024-01-30T05:54:46;96064.34;;;-0.90;78.41
9855;BME280;4966;48.112;9.282;2024-01-30T05:57:12;96067.03;;;-0.78;77.65
9855;BME280;4966;48.112;9.282;2024-01-30T05:59:37;96067.94;;;-0.84;78.38
9855;BME280;4966;48.112;9.282;2024-01-30T06:02:02;96071.34;;;-0.89;78.26
9855;BME280;4966;48.112;9.282;2024-01-30T06:04:28;96072.59;;;-0.91;78.37
9855;BME280;4966;48.112;9.282;2024-01-30T06:06:53;96067.94;;;-0.84;77.84
9855;BME280;4966;48.112;9.282;2024-01-30T06:09:18;96076.44;;;-0.87;77.96
9855;BME280;4966;48.112;9.282;2024-01-30T06:11:44;96074.47;;;-0.92;78.02
9855;BME280;4966;48.112;9.282;2024-01-30T06:14:09;96065.63;;;-0.92;78.39
9855;BME280;4966;48.112;9.282;2024-01-30T06:16:35;96069.00;;;-0.97;78.72
9855;BME280;4966;48.112;9.282;2024-01-30T06:19:00;96065.84;;;-0.94;78.60
9855;BME280;4966;48.112;9.282;2024-01-30T06:21:25;96069.00;;;-0.97;78.35
9855;BME280;4966;48.112;9.282;2024-01-30T06:23:51;96060.75;;;-0.95;78.77
9855;BME280;4966;48.112;9.282;2024-01-30T06:26:16;96061.09;;;-0.80;78.65
9855;BME280;4966;48.112;9.282;2024-01-30T06:28:41;96069.47;;;-0.88;78.28
9855;BME280;4966;48.112;9.282;2024-01-30T06:31:07;96060.78;;;-0.83;78.12
9855;BME280;4966;48.112;9.282;2024-01-30T06:33:32;96063.66;;;-0.85;77.94
9855;BME280;4966;48.112;9.282;2024-01-30T06:35:57;96061.22;;;-0.98;78.09
9855;BME280;4966;48.112;9.282;2024-01-30T06:38:22;96063.66;;;-0.97;78.34
9855;BME280;4966;48.112;9.282;2024-01-30T06:40:48;96070.50;;;-1.01;78.15
9855;BME280;4966;48.112;9.282;2024-01-30T06:43:13;96064.34;;;-1.01;78.47
9855;BME280;4966;48.112;9.282;2024-01-30T06:45:38;96067.13;;;-0.96;78.31
9855;BME280;4966;48.112;9.282;2024-01-30T06:48:04;96068.91;;;-0.78;77.75
9855;BME280;4966;48.112;9.282;2024-01-30T06:50:29;96083.19;;;-0.73;77.50
9855;BME280;4966;48.112;9.282;2024-01-30T06:52:55;96081.31;;;-0.72;77.25
9855;BME280;4966;48.112;9.282;2024-01-30T06:55:20;96086.66;;;-0.84;77.66
9855;BME280;4966;48.112;9.282;2024-01-30T06:57:45;96087.72;;;-0.85;77.70
9855;BME280;4966;48.112;9.282;2024-01-30T07:00:11;96081.31;;;-0.96;78.10
9855;BME280;4966;48.112;9.282;2024-01-30T07:02:37;96094.34;;;-0.88;78.19
9855;BME280;4966;48.112;9.282;2024-01-30T07:05:03;96090.97;;;-0.83;78.11
9855;BME280;4966;48.112;9.282;2024-01-30T07:07:29;96095.50;;;-0.83;78.42
9855;BME280;4966;48.112;9.282;2024-01-30T07:09:54;96097.72;;;-0.80;78.00
9855;BME280;4966;48.112;9.282;2024-01-30T07:12:22;96091.88;;;-0.89;78.41
9855;BME280;4966;48.112;9.282;2024-01-30T07:14:49;96104.66;;;-0.79;78.38
9855;BME280;4966;48.112;9.282;2024-01-30T07:17:15;96095.75;;;-0.73;78.48
9855;BME280;4966;48.112;9.282;2024-01-30T07:19:40;96100.50;;;-0.63;78.55
9855;BME280;4966;48.112;9.282;2024-01-30T07:22:06;96093.75;;;-0.54;78.69
9855;BME280;4966;48.112;9.282;2024-01-30T07:24:31;96089.69;;;-0.45;78.25
9855;BME280;4966;48.112;9.282;2024-01-30T07:26:56;96091.91;;;-0.42;78.11
9855;BME280;4966;48.112;9.282;2024-01-30T07:29:22;96088.41;;;-0.31;78.46
9855;BME280;4966;48.112;9.282;2024-01-30T07:31:47;96086.16;;;-0.22;77.88
9855;BME280;4966;48.112;9.282;2024-01-30T07:34:12;96097.63;;;0.02;77.48
9855;BME280;4966;48.112;9.282;2024-01-30T07:36:38;96090.88;;;0.11;77.46
9855;BME280;4966;48.112;9.282;2024-01-30T07:39:03;96090.88;;;0.11;77.44
9855;BME280;4966;48.112;9.282;2024-01-30T07:41:28;96091.31;;;0.20;77.55
9855;BME280;4966;48.112;9.282;2024-01-30T07:43:54;96091.97;;;0.39;77.35
9855;BME280;4966;48.112;9.282;2024-01-30T07:46:19;96098.31;;;0.50;77.37
9855;BME280;4966;48.112;9.282;2024-01-30T07:48:44;96094.19;;;0.59;76.55
9855;BME280;4966;48.112;9.282;2024-01-30T07:51:10;96095.75;;;0.72;76.18
9855;BME280;4966;48.112;9.282;2024-01-30T07:53:35;96089.53;;;0.83;76.23
9855;BME280;4966;48.112;9.282;2024-01-30T07:56:00;96100.19;;;0.95;75.50
9855;BME280;4966;48.112;9.282;2024-01-30T07:58:25;96093.09;;;0.89;76.06
9855;BME280;4966;48.112;9.282;2024-01-30T08:00:52;96094.34;;;0.98;76.00
9855;BME280;4966;48.112;9.282;2024-01-30T08:03:18;96100.44;;;1.10;76.00
9855;BME280;4966;48.112;9.282;2024-01-30T08:05:44;96098.97;;;1.19;75.67
9855;BME280;4966;48.112;9.282;2024-01-30T08:08:09;96105.25;;;1.25;75.50
9855;BME280;4966;48.112;9.282;2024-01-30T08:10:34;96099.53;;;1.38;75.29
9855;BME280;4966;48.112;9.282;2024-01-30T08:12:59;96096.75;;;1.67;73.60
9855;BME280;4966;48.112;9.282;2024-01-30T08:15:25;96093.69;;;1.58;74.30
9855;BME280;4966;48.112;9.282;2024-01-30T08:17:50;96105.09;;;1.48;74.89
9855;BME280;4966;48.112;9.282;2024-01-30T08:20:20;96100.09;;;1.57;75.31
9855;BME280;4966;48.112;9.282;2024-01-30T08:22:46;96101.81;;;1.63;75.54
9855;BME280;4966;48.112;9.282;2024-01-30T08:25:11;96095.16;;;1.88;75.37
9855;BME280;4966;48.112;9.282;2024-01-30T08:27:36;96103.22;;;2.10;74.30
9855;BME280;4966;48.112;9.282;2024-01-30T08:30:05;96097.38;;;2.35;73.71
9855;BME280;4966;48.112;9.282;2024-01-30T08:32:31;96093.81;;;2.51;73.80
9855;BME280;4966;48.112;9.282;2024-01-30T08:34:56;96094.19;;;2.65;73.72
9855;BME280;4966;48.112;9.282;2024-01-30T08:37:21;96087.34;;;2.80;74.07
9855;BME280;4966;48.112;9.282;2024-01-30T08:39:47;96090.34;;;3.10;72.67
9855;BME280;4966;48.112;9.282;2024-01-30T08:42:12;96096.13;;;3.29;72.62
9855;BME280;4966;48.112;9.282;2024-01-30T08:44:38;96094.59;;;3.38;72.15
9855;BME280;4966;48.112;9.282;2024-01-30T08:47:03;96098.66;;;3.41;72.58
9855;BME280;4966;48.112;9.282;2024-01-30T08:49:29;96097.91;;;3.51;73.10
9855;BME280;4966;48.112;9.282;2024-01-30T08:51:54;96091.00;;;3.60;73.35
9855;BME280;4966;48.112;9.282;2024-01-30T08:54:19;96106.16;;;3.71;73.16
9855;BME280;4966;48.112;9.282;2024-01-30T08:56:45;96106.44;;;3.80;73.54
9855;BME280;4966;48.112;9.282;2024-01-30T08:59:10;96113.03;;;3.99;72.74
9855;BME280;4966;48.112;9.282;2024-01-30T09:01:36;96112.25;;;4.04;72.75
9855;BME280;4966;48.112;9.282;2024-01-30T09:04:01;96109.56;;;4.04;72.94
9855;BME280;4966;48.112;9.282;2024-01-30T09:06:27;96116.84;;;4.09;73.58
9855;BME280;4966;48.112;9.282;2024-01-30T09:08:53;96112.34;;;4.19;73.43
9855;BME280;4966;48.112;9.282;2024-01-30T09:11:19;96123.94;;;4.25;73.44
9855;BME280;4966;48.112;9.282;2024-01-30T09:13:44;96117.25;;;4.38;73.61
9855;BME280;4966;48.112;9.282;2024-01-30T09:16:09;96123.78;;;4.57;73.51
9855;BME280;4966;48.112;9.282;2024-01-30T09:18:35;96121.41;;;4.71;73.04
9855;BME280;4966;48.112;9.282;2024-01-30T09:21:00;96108.25;;;4.75;73.71
9855;BME280;4966;48.112;9.282;2024-01-30T09:23:27;96122.53;;;4.85;72.70
9855;BME280;4966;48.112;9.282;2024-01-30T09:25:53;96122.06;;;5.09;72.17
9855;BME280;4966;48.112;9.282;2024-01-30T09:28:18;96128.00;;;5.16;72.22
9855;BME280;4966;48.112;9.282;2024-01-30T09:30:44;96122.09;;;5.29;72.44
9855;BME280;4966;48.112;9.282;2024-01-30T09:33:09;96123.19;;;5.49;72.91
9855;BME280;4966;48.112;9.282;2024-01-30T09:35:35;96128.28;;;5.50;73.45
9855;BME280;4966;48.112;9.282;2024-01-30T09:38:01;96126.97;;;5.94;72.80
9855;BME280;4966;48.112;9.282;2024-01-30T09:40:27;96120.16;;;6.07;71.19
9855;BME280;4966;48.112;9.282;2024-01-30T09:42:53;96123.44;;;6.04;71.45
9855;BME280;4966;48.112;9.282;2024-01-30T09:45:19;96126.09;;;6.09;71.56
9855;BME280;4966;48.112;9.282;2024-01-30T09:47:45;96125.81;;;6.21;70.81
9855;BME280;4966;48.112;9.282;2024-01-30T09:50:13;96127.91;;;6.44;71.64
9855;BME280;4966;48.112;9.282;2024-01-30T09:52:38;96125.09;;;6.65;70.71
9855;BME280;4966;48.112;9.282;2024-01-30T09:55:05;96124.25;;;6.74;70.93
9855;BME280;4966;48.112;9.282;2024-01-30T09:57:31;96130.16;;;6.81;70.51
9855;BME280;4966;48.112;9.282;2024-01-30T09:59:56;96128.41;;;7.06;69.39
9855;BME280;4966;48.112;9.282;2024-01-30T10:02:22;96123.47;;;7.18;69.78
9855;BME280;4966;48.112;9.282;2024-01-30T10:04:51;96123.59;;;7.37;69.47
9855;BME280;4966;48.112;9.282;2024-01-30T10:07:18;96132.59;;;7.67;67.75
9855;BME280;4966;48.112;9.282;2024-01-30T10:09:44;96126.28;;;7.77;67.68
9855;BME280;4966;48.112;9.282;2024-01-30T10:12:09;96118.09;;;7.82;67.53
9855;BME280;4966;48.112;9.282;2024-01-30T10:14:38;96117.66;;;7.99;67.42
9855;BME280;4966;48.112;9.282;2024-01-30T10:17:04;96121.22;;;8.23;66.78
9855;BME280;4966;48.112;9.282;2024-01-30T10:19:31;96119.22;;;8.34;65.96
9855;BME280;4966;48.112;9.282;2024-01-30T10:21:56;96119.81;;;8.55;64.96
9855;BME280;4966;48.112;9.282;2024-01-30T10:24:26;96121.66;;;8.60;65.44
9855;BME280;4966;48.112;9.282;2024-01-30T10:26:52;96121.34;;;8.85;64.72
9855;BME280;4966;48.112;9.282;2024-01-30T10:29:18;96112.56;;;9.12;64.41
9855;BME280;4966;48.112;9.282;2024-01-30T10:31:43;96106.69;;;9.24;64.10
9855;BME280;4966;48.112;9.282;2024-01-30T10:34:09;96107.50;;;9.44;63.77
9855;BME280;4966;48.112;9.282;2024-01-30T10:36:41;96105.22;;;9.51;63.52
9855;BME280;4966;48.112;9.282;2024-01-30T10:39:08;96101.53;;;9.61;63.03
9855;BME280;4966;48.112;9.282;2024-01-30T10:41:40;96104.94;;;9.66;63.14
9855;BME280;4966;48.112;9.282;2024-01-30T10:44:10;96096.69;;;10.04;61.58
9855;BME280;4966;48.112;9.282;2024-01-30T10:46:38;96096.16;;;9.88;62.44
9855;BME280;4966;48.112;9.282;2024-01-30T10:49:04;96094.41;;;10.25;61.85
9855;BME280;4966;48.112;9.282;2024-01-30T10:51:31;96089.41;;;10.60;59.91
9855;BME280;4966;48.112;9.282;2024-01-30T10:53:57;96086.88;;;10.63;59.73
9855;BME280;4966;48.112;9.282;2024-01-30T10:56:24;96089.22;;;10.42;60.18
9855;BME280;4966;48.112;9.282;2024-01-30T10:58:53;96090.00;;;10.71;59.43
9855;BME280;4966;48.112;9.282;2024-01-30T11:01:19;96087.78;;;10.73;60.23
9855;BME280;4966;48.112;9.282;2024-01-30T11:03:48;96084.63;;;10.93;58.83
9855;BME280;4966;48.112;9.282;2024-01-30T11:06:14;96083.66;;;10.75;59.48
9855;BME280;4966;48.112;9.282;2024-01-30T11:08:43;96088.88;;;10.58;60.68
9855;BME280;4966;48.112;9.282;2024-01-30T11:11:09;96085.47;;;10.38;61.39
9855;BME280;4966;48.112;9.282;2024-01-30T11:13:36;96084.78;;;10.47;61.13
9855;BME280;4966;48.112;9.282;2024-01-30T11:16:02;96086.03;;;10.91;60.14
9855;BME280;4966;48.112;9.282;2024-01-30T11:18:32;96075.16;;;10.77;60.98
9855;BME280;4966;48.112;9.282;2024-01-30T11:20:58;96079.38;;;10.97;59.43
9855;BME280;4966;48.112;9.282;2024-01-30T11:23:26;96077.84;;;11.04;59.17
9855;BME280;4966;48.112;9.282;2024-01-30T11:25:56;96073.09;;;11.10;58.63
9855;BME280;4966;48.112;9.282;2024-01-30T11:28:22;96067.09;;;11.44;58.39
9855;BME280;4966;48.112;9.282;2024-01-30T11:30:47;96063.06;;;11.42;57.54
9855;BME280;4966;48.112;9.282;2024-01-30T11:33:27;96057.41;;;11.52;58.23
9855;BME280;4966;48.112;9.282;2024-01-30T11:35:57;96054.47;;;11.48;57.84
9855;BME280;4966;48.112;9.282;2024-01-30T11:38:23;96057.63;;;11.42;58.43
9855;BME280;4966;48.112;9.282;2024-01-30T11:40:51;96050.94;;;11.70;57.06
9855;BME280;4966;48.112;9.282;2024-01-30T11:43:16;96054.03;;;11.78;56.14
9855;BME280;4966;48.112;9.282;2024-01-30T11:45:42;96051.28;;;11.78;56.14
9855;BME280;4966;48.112;9.282;2024-01-30T11:48:11;96057.69;;;11.50;56.32
9855;BME280;4966;48.112;9.282;2024-01-30T11:50:37;96054.00;;;11.69;56.30
9855;BME280;4966;48.112;9.282;2024-01-30T11:53:04;96049.59;;;11.37;56.47
9855;BME280;4966;48.112;9.282;2024-01-30T11:55:30;96049.09;;;11.57;56.80
9855;BME280;4966;48.112;9.282;2024-01-30T11:57:56;96051.28;;;11.78;55.79
9855;BME280;4966;48.112;9.282;2024-01-30T12:00:22;96040.16;;;11.65;56.00
9855;BME280;4966;48.112;9.282;2024-01-30T12:02:51;96035.03;;;11.64;55.72
9855;BME280;4966;48.112;9.282;2024-01-30T12:05:19;96035.50;;;11.66;56.55
9855;BME280;4966;48.112;9.282;2024-01-30T12:07:45;96039.19;;;12.15;54.16
9855;BME280;4966;48.112;9.282;2024-01-30T12:10:12;96031.97;;;12.68;52.60
9855;BME280;4966;48.112;9.282;2024-01-30T12:12:39;96032.97;;;12.98;51.42
9855;BME280;4966;48.112;9.282;2024-01-30T12:15:06;96027.97;;;12.83;50.99
9855;BME280;4966;48.112;9.282;2024-01-30T12:17:33;96039.56;;;13.06;51.27
9855;BME280;4966;48.112;9.282;2024-01-30T12:22:33;96032.63;;;12.99;51.09
9855;BME280;4966;48.112;9.282;2024-01-30T12:24:58;96018.44;;;12.45;50.99
9855;BME280;4966;48.112;9.282;2024-01-30T12:27:23;96021.19;;;12.63;50.89
9855;BME280;4966;48.112;9.282;2024-01-30T12:29:55;96020.72;;;12.21;50.85
9855;BME280;4966;48.112;9.282;2024-01-30T12:32:22;96017.53;;;12.19;51.44
9855;BME280;4966;48.112;9.282;2024-01-30T12:34:48;96020.66;;;11.72;52.41
9855;BME280;4966;48.112;9.282;2024-01-30T12:37:13;96019.28;;;11.83;52.70
9855;BME280;4966;48.112;9.282;2024-01-30T12:39:39;96009.75;;;11.72;53.00
9855;BME280;4966;48.112;9.282;2024-01-30T12:42:04;96012.59;;;11.67;52.97
9855;BME280;4966;48.112;9.282;2024-01-30T12:44:29;96011.59;;;12.25;51.88
9855;BME280;4966;48.112;9.282;2024-01-30T12:46:55;96004.34;;;11.81;52.18
9855;BME280;4966;48.112;9.282;2024-01-30T12:49:20;96003.91;;;11.87;52.53
9855;BME280;4966;48.112;9.282;2024-01-30T12:51:46;96003.47;;;11.94;52.06
9855;BME280;4966;48.112;9.282;2024-01-30T12:54:12;96006.28;;;12.11;52.21
9855;BME280;4966;48.112;9.282;2024-01-30T12:56:38;96005.59;;;12.06;52.03
9855;BME280;4966;48.112;9.282;2024-01-30T12:59:03;96004.66;;;12.10;51.60
9855;BME280;4966;48.112;9.282;2024-01-30T13:01:29;95998.66;;;11.91;51.88
9855;BME280;4966;48.112;9.282;2024-01-30T13:03:54;95992.00;;;12.23;51.39
9855;BME280;4966;48.112;9.282;2024-01-30T13:06:22;95996.72;;;12.40;51.12
9855;BME280;4966;48.112;9.282;2024-01-30T13:08:47;95996.09;;;12.52;50.76
9855;BME280;4966;48.112;9.282;2024-01-30T13:11:13;96002.50;;;12.39;50.92
9855;BME280;4966;48.112;9.282;2024-01-30T13:13:38;95989.06;;;12.68;50.23
9855;BME280;4966;48.112;9.282;2024-01-30T13:16:04;95993.41;;;12.78;49.84
9855;BME280;4966;48.112;9.282;2024-01-30T13:18:29;95999.53;;;12.75;49.75